Sebastian, FL

4:46 PM EDT on September 28, 2016 (GMT -0400)
OZWORLD - *Sebastian Highlands* - | | Change Station

Elev 23 ft 27.80 °N, 80.48 °W | Updated 8 seconds ago

Mostly Cloudy
Mostly Cloudy
84.1 °F
Feels Like 93 °F
N
0.0
Wind Variable Wind from ESE
Gusts 9.0 mph

Today
High -- | Low -- °F
--% Chance of Precip.
Yesterday
High -- | Low -- °F
Precip. -- in
Pressure 29.96 in
Visibility 10.0 miles
Clouds Scattered Clouds 6000 ft
Mostly Cloudy 7000 ft
Heat Index 93 °F
Dew Point 76 °F
Humidity 76%
Rainfall 0.00 in
Snow Depth Not available.
7:13 AM 7:10 PM
Waning Crescent, 4% visible
METAR KVRB 281953Z AUTO 10009KT 10SM SCT060 BKN070 30/24 A2997 RMK AO2 SLP146 T03000239
Pressure 29.96 in
Visibility 10.0 miles
Clouds Scattered Clouds 6000 ft
Mostly Cloudy 7000 ft
Heat Index 93 °F
Dew Point 76 °F
Humidity 76%
Rainfall 0.00 in
Snow Depth Not available.
7:13 AM 7:10 PM
Waning Crescent, 4% visible
METAR KVRB 281953Z AUTO 10009KT 10SM SCT060 BKN070 30/24 A2997 RMK AO2 SLP146 T03000239

10-Day Weather Forecast

Almanac

Astronomy

Sep. 28, 2016 Rise Set
Actual Time
Civil Twilight
Nautical Twilight
Astronomical Twilight
Moon
Length of Visible Light
Length of Day
Tomorrow will be .
, % of the Moon is Illuminated

Today's Extremes

State Highs State Lows

Community

WunderPhotos

Upload Photos

1,942,325 photos uploaded!

WunderBlog® & News

Nearby

Air Quality

  Air Quality AQ Index Pollutant
Not available.

Snow Depth

Station Depth Elevation

Earthquake Activity

City Distance Mag. Time & Date
Minimum magnitude displayed is 2.5.

Coastal Water Temperatures

Place Temperature

Stations

Nearby Weather Stations

Station Location Temp. Windchill Dew Point Humidity Wind Precip. Elev Updated Type
                   

Watches & Warnings

There are currently no watches in effect.